sensor_id;sensor_type;location;lat;lon;timestamp;pressure;altitude;pressure_sealevel;temperature;humidity
44457;BME280;30159;49.316;8.558;2023-04-05T00:01:08;101108.91;;;3.74;64.61
44457;BME280;30159;49.316;8.558;2023-04-05T00:03:36;101102.78;;;3.74;64.40
44457;BME280;30159;49.316;8.558;2023-04-05T00:06:04;101104.84;;;3.72;64.12
44457;BME280;30159;49.316;8.558;2023-04-05T00:08:32;101095.63;;;3.68;64.66
44457;BME280;30159;49.316;8.558;2023-04-05T00:10:58;101095.66;;;3.61;64.93
44457;BME280;30159;49.316;8.558;2023-04-05T00:13:25;101093.41;;;3.65;65.19
44457;BME280;30159;49.316;8.558;2023-04-05T00:15:53;101091.78;;;3.64;65.90
44457;BME280;30159;49.316;8.558;2023-04-05T00:18:22;101093.47;;;3.51;65.94
44457;BME280;30159;49.316;8.558;2023-04-05T00:20:49;101088.16;;;3.51;66.31
44457;BME280;30159;49.316;8.558;2023-04-05T00:23:16;101084.88;;;3.49;66.23
44457;BME280;30159;49.316;8.558;2023-04-05T00:25:45;101083.25;;;3.48;67.55
44457;BME280;30159;49.316;8.558;2023-04-05T00:28:12;101079.22;;;3.39;66.99
44457;BME280;30159;49.316;8.558;2023-04-05T00:30:38;101082.72;;;3.33;68.20
44457;BME280;30159;49.316;8.558;2023-04-05T00:33:06;101087.28;;;3.26;68.17
44457;BME280;30159;49.316;8.558;2023-04-05T00:35:33;101092.88;;;3.17;69.18
44457;BME280;30159;49.316;8.558;2023-04-05T00:37:59;101088.16;;;3.13;69.92
44457;BME280;30159;49.316;8.558;2023-04-05T00:40:26;101077.38;;;3.01;70.55
44457;BME280;30159;49.316;8.558;2023-04-05T00:42:52;101079.84;;;2.96;71.46
44457;BME280;30159;49.316;8.558;2023-04-05T00:45:19;101080.06;;;2.94;72.70
44457;BME280;30159;49.316;8.558;2023-04-05T00:47:45;101084.00;;;2.85;74.36
44457;BME280;30159;49.316;8.558;2023-04-05T00:50:15;101071.31;;;2.81;73.51
44457;BME280;30159;49.316;8.558;2023-04-05T00:52:42;101025.56;;;2.39;74.09
44457;BME280;30159;49.316;8.558;2023-04-05T00:55:09;101048.69;;;2.45;74.51
44457;BME280;30159;49.316;8.558;2023-04-05T00:57:36;100992.88;;;2.11;74.62
44457;BME280;30159;49.316;8.558;2023-04-05T01:00:05;101061.34;;;2.56;75.97
44457;BME280;30159;49.316;8.558;2023-04-05T01:02:35;101063.19;;;2.49;75.82
44457;BME280;30159;49.316;8.558;2023-04-05T01:05:17;101061.41;;;2.43;76.39
44457;BME280;30159;49.316;8.558;2023-04-05T01:07:50;101062.81;;;2.39;75.41
44457;BME280;30159;49.316;8.558;2023-04-05T01:10:21;101032.94;;;2.30;75.01
44457;BME280;30159;49.316;8.558;2023-04-05T01:12:48;101060.53;;;2.49;73.09
44457;BME280;30159;49.316;8.558;2023-04-05T01:15:15;101052.16;;;2.52;73.11
44457;BME280;30159;49.316;8.558;2023-04-05T01:17:43;101053.56;;;2.55;71.90
44457;BME280;30159;49.316;8.558;2023-04-05T01:20:11;101061.53;;;2.61;71.41
44457;BME280;30159;49.316;8.558;2023-04-05T01:26:22;101051.34;;;2.45;74.15
44457;BME280;30159;49.316;8.558;2023-04-05T01:32:03;101037.00;;;2.46;72.90
44457;BME280;30159;49.316;8.558;2023-04-05T01:34:39;101033.13;;;2.42;73.06
44457;BME280;30159;49.316;8.558;2023-04-05T01:37:11;101030.47;;;2.42;70.38
44457;BME280;30159;49.316;8.558;2023-04-05T01:39:38;101031.88;;;2.44;70.66
44457;BME280;30159;49.316;8.558;2023-04-05T01:42:05;101036.56;;;2.56;70.49
44457;BME280;30159;49.316;8.558;2023-04-05T01:44:32;101033.50;;;2.52;69.17
44457;BME280;30159;49.316;8.558;2023-04-05T01:47:00;101028.78;;;2.54;68.70
44457;BME280;30159;49.316;8.558;2023-04-05T01:49:27;101032.81;;;2.70;69.72
44457;BME280;30159;49.316;8.558;2023-04-05T01:51:53;101037.50;;;2.74;69.60
44457;BME280;30159;49.316;8.558;2023-04-05T01:54:20;100932.91;;;2.09;68.63
44457;BME280;30159;49.316;8.558;2023-04-05T01:56:47;101028.72;;;2.74;70.13
44457;BME280;30159;49.316;8.558;2023-04-05T01:59:13;101034.63;;;2.76;69.36
44457;BME280;30159;49.316;8.558;2023-04-05T02:01:40;101000.94;;;2.50;70.52
44457;BME280;30159;49.316;8.558;2023-04-05T02:04:08;101036.53;;;2.62;70.78
44457;BME280;30159;49.316;8.558;2023-04-05T02:06:34;101027.31;;;2.58;71.48
44457;BME280;30159;49.316;8.558;2023-04-05T02:09:01;101021.81;;;2.53;73.03
44457;BME280;30159;49.316;8.558;2023-04-05T02:11:27;101026.16;;;2.47;73.16
44457;BME280;30159;49.316;8.558;2023-04-05T02:13:54;101024.53;;;2.40;73.19
44457;BME280;30159;49.316;8.558;2023-04-05T02:16:20;101018.22;;;2.27;75.16
44457;BME280;30159;49.316;8.558;2023-04-05T02:18:47;101020.69;;;2.22;75.78
44457;BME280;30159;49.316;8.558;2023-04-05T02:21:16;101018.84;;;2.16;76.81
44457;BME280;30159;49.316;8.558;2023-04-05T02:23:42;101015.81;;;2.06;76.04
44457;BME280;30159;49.316;8.558;2023-04-05T02:26:09;101000.28;;;1.96;77.41
44457;BME280;30159;49.316;8.558;2023-04-05T02:28:36;101016.44;;;2.01;76.19
44457;BME280;30159;49.316;8.558;2023-04-05T02:31:07;100997.22;;;1.93;77.74
44457;BME280;30159;49.316;8.558;2023-04-05T02:33:34;101011.31;;;1.93;78.07
44457;BME280;30159;49.316;8.558;2023-04-05T02:36:03;101019.91;;;1.88;75.81
44457;BME280;30159;49.316;8.558;2023-04-05T02:38:31;101013.78;;;1.88;75.65
44457;BME280;30159;49.316;8.558;2023-04-05T02:40:57;101012.97;;;1.87;74.81
44457;BME280;30159;49.316;8.558;2023-04-05T02:43:24;101015.63;;;1.81;76.01
44457;BME280;30159;49.316;8.558;2023-04-05T02:45:51;101014.22;;;1.78;75.65
44457;BME280;30159;49.316;8.558;2023-04-05T02:48:18;101026.69;;;1.84;74.47
44457;BME280;30159;49.316;8.558;2023-04-05T02:50:46;101016.63;;;1.86;74.50
44457;BME280;30159;49.316;8.558;2023-04-05T02:53:13;101021.38;;;1.84;75.21
44457;BME280;30159;49.316;8.558;2023-04-05T02:55:40;101020.75;;;1.89;75.05
44457;BME280;30159;49.316;8.558;2023-04-05T02:58:07;101022.38;;;1.83;77.26
44457;BME280;30159;49.316;8.558;2023-04-05T03:00:34;101023.22;;;1.77;77.90
44457;BME280;30159;49.316;8.558;2023-04-05T03:03:00;101021.56;;;1.69;78.63
44457;BME280;30159;49.316;8.558;2023-04-05T03:05:27;101015.03;;;1.59;80.03
44457;BME280;30159;49.316;8.558;2023-04-05T03:07:54;101010.94;;;1.50;79.90
44457;BME280;30159;49.316;8.558;2023-04-05T03:10:20;101008.47;;;1.41;80.18
44457;BME280;30159;49.316;8.558;2023-04-05T03:12:51;101009.72;;;1.39;80.74
44457;BME280;30159;49.316;8.558;2023-04-05T03:15:18;100999.06;;;1.32;79.59
44457;BME280;30159;49.316;8.558;2023-04-05T03:17:44;101016.44;;;1.35;80.73
44457;BME280;30159;49.316;8.558;2023-04-05T03:20:11;101004.59;;;1.37;81.18
44457;BME280;30159;49.316;8.558;2023-04-05T03:22:38;101008.69;;;1.33;81.60
44457;BME280;30159;49.316;8.558;2023-04-05T03:25:06;100999.47;;;1.29;82.99
44457;BME280;30159;49.316;8.558;2023-04-05T03:27:32;100993.13;;;1.23;82.30
44457;BME280;30159;49.316;8.558;2023-04-05T03:30:00;101002.31;;;1.14;82.60
44457;BME280;30159;49.316;8.558;2023-04-05T03:32:27;101006.00;;;1.20;83.09
44457;BME280;30159;49.316;8.558;2023-04-05T03:34:53;101002.94;;;1.23;82.44
44457;BME280;30159;49.316;8.558;2023-04-05T03:37:20;101012.34;;;1.25;82.63
44457;BME280;30159;49.316;8.558;2023-04-05T03:39:47;101007.66;;;1.27;84.97
44457;BME280;30159;49.316;8.558;2023-04-05T03:42:13;101010.53;;;1.26;85.86
44457;BME280;30159;49.316;8.558;2023-04-05T03:44:42;101019.72;;;1.17;86.13
44457;BME280;30159;49.316;8.558;2023-04-05T03:47:10;101011.91;;;1.09;86.50
44457;BME280;30159;49.316;8.558;2023-04-05T03:49:37;101004.97;;;1.01;87.69
44457;BME280;30159;49.316;8.558;2023-04-05T03:52:04;101007.19;;;0.97;88.08
44457;BME280;30159;49.316;8.558;2023-04-05T03:54:30;101002.69;;;0.98;88.26
44457;BME280;30159;49.316;8.558;2023-04-05T03:56:57;100984.50;;;0.95;88.09
44457;BME280;30159;49.316;8.558;2023-04-05T03:59:23;101003.94;;;1.02;87.81
44457;BME280;30159;49.316;8.558;2023-04-05T04:01:50;101000.28;;;1.03;88.22
44457;BME280;30159;49.316;8.558;2023-04-05T04:04:18;100988.38;;;0.92;88.22
44457;BME280;30159;49.316;8.558;2023-04-05T04:06:45;100997.16;;;0.93;89.04
44457;BME280;30159;49.316;8.558;2023-04-05T04:09:11;100997.38;;;0.91;88.70
44457;BME280;30159;49.316;8.558;2023-04-05T04:11:38;100996.13;;;0.80;90.00
44457;BME280;30159;49.316;8.558;2023-04-05T04:14:05;101001.00;;;0.77;90.60
44457;BME280;30159;49.316;8.558;2023-04-05T04:16:31;100985.22;;;0.62;91.77
44457;BME280;30159;49.316;8.558;2023-04-05T04:18:58;100994.44;;;0.66;93.19
44457;BME280;30159;49.316;8.558;2023-04-05T04:21:25;101002.41;;;0.66;92.85
44457;BME280;30159;49.316;8.558;2023-04-05T04:23:52;100998.31;;;0.63;92.19
44457;BME280;30159;49.316;8.558;2023-04-05T04:26:20;100997.47;;;0.56;91.83
44457;BME280;30159;49.316;8.558;2023-04-05T04:28:51;100993.78;;;0.57;92.11
44457;BME280;30159;49.316;8.558;2023-04-05T04:31:18;100997.47;;;0.56;92.62
44457;BME280;30159;49.316;8.558;2023-04-05T04:33:45;100993.16;;;0.55;93.42
44457;BME280;30159;49.316;8.558;2023-04-05T04:36:12;100997.84;;;0.53;93.86
44457;BME280;30159;49.316;8.558;2023-04-05T04:38:40;100993.56;;;0.52;94.51
44457;BME280;30159;49.316;8.558;2023-04-05T04:41:09;100999.47;;;0.48;94.65
44457;BME280;30159;49.316;8.558;2023-04-05T04:43:35;101005.59;;;0.48;94.46
44457;BME280;30159;49.316;8.558;2023-04-05T04:46:08;100923.31;;;-0.07;96.86
44457;BME280;30159;49.316;8.558;2023-04-05T04:48:39;101001.69;;;0.37;97.33
44457;BME280;30159;49.316;8.558;2023-04-05T04:51:07;101003.44;;;0.30;98.23
44457;BME280;30159;49.316;8.558;2023-04-05T04:53:33;100994.66;;;0.23;99.73
44457;BME280;30159;49.316;8.558;2023-04-05T04:56:05;100992.84;;;0.24;100.00
44457;BME280;30159;49.316;8.558;2023-04-05T04:58:31;101000.78;;;0.24;100.00
44457;BME280;30159;49.316;8.558;2023-04-05T05:00:58;101006.09;;;0.24;100.00
44457;BME280;30159;49.316;8.558;2023-04-05T05:03:25;101008.75;;;0.24;100.00
44457;BME280;30159;49.316;8.558;2023-04-05T05:05:51;100876.88;;;-0.66;100.00
44457;BME280;30159;49.316;8.558;2023-04-05T05:08:18;101011.94;;;0.12;100.00
44457;BME280;30159;49.316;8.558;2023-04-05T05:10:45;101004.34;;;0.09;100.00
44457;BME280;30159;49.316;8.558;2023-04-05T05:13:13;101007.28;;;0.14;99.68
44457;BME280;30159;49.316;8.558;2023-04-05T05:15:39;100990.88;;;0.04;98.99
44457;BME280;30159;49.316;8.558;2023-04-05T05:18:06;101017.69;;;0.23;98.16
44457;BME280;30159;49.316;8.558;2023-04-05T05:20:33;101017.34;;;0.32;95.96
44457;BME280;30159;49.316;8.558;2023-04-05T05:22:59;101006.59;;;0.40;95.19
44457;BME280;30159;49.316;8.558;2023-04-05T05:25:28;101009.50;;;0.52;94.57
44457;BME280;30159;49.316;8.558;2023-04-05T05:27:54;101011.59;;;0.63;93.90
44457;BME280;30159;49.316;8.558;2023-04-05T05:30:22;101015.13;;;0.84;93.74
44457;BME280;30159;49.316;8.558;2023-04-05T05:32:49;101016.41;;;1.01;93.00
44457;BME280;30159;49.316;8.558;2023-04-05T05:35:17;100996.16;;;1.07;92.71
44457;BME280;30159;49.316;8.558;2023-04-05T05:37:43;101014.22;;;1.45;91.85
44457;BME280;30159;49.316;8.558;2023-04-05T05:40:10;101013.81;;;1.68;90.62
44457;BME280;30159;49.316;8.558;2023-04-05T05:42:37;101013.75;;;2.15;89.61
44457;BME280;30159;49.316;8.558;2023-04-05T05:45:05;101017.56;;;2.90;85.48
44457;BME280;30159;49.316;8.558;2023-04-05T05:47:33;101020.22;;;3.79;82.47
44457;BME280;30159;49.316;8.558;2023-04-05T05:50:00;101011.34;;;4.77;77.49
44457;BME280;30159;49.316;8.558;2023-04-05T05:52:27;101022.69;;;5.99;72.18
44457;BME280;30159;49.316;8.558;2023-04-05T05:54:54;101017.28;;;6.86;68.30
44457;BME280;30159;49.316;8.558;2023-04-05T05:57:20;101021.69;;;8.06;65.50
44457;BME280;30159;49.316;8.558;2023-04-05T05:59:47;101025.47;;;9.15;62.75
44457;BME280;30159;49.316;8.558;2023-04-05T06:02:14;101016.25;;;10.12;59.69
44457;BME280;30159;49.316;8.558;2023-04-05T06:04:42;101022.56;;;10.91;57.42
44457;BME280;30159;49.316;8.558;2023-04-05T06:07:09;101022.88;;;11.15;56.42
44457;BME280;30159;49.316;8.558;2023-04-05T06:09:36;101026.94;;;12.10;54.87
44457;BME280;30159;49.316;8.558;2023-04-05T06:12:03;101035.47;;;13.08;52.79
44457;BME280;30159;49.316;8.558;2023-04-05T06:14:29;101023.06;;;13.76;51.11
44457;BME280;30159;49.316;8.558;2023-04-05T06:16:56;101022.75;;;14.60;49.23
44457;BME280;30159;49.316;8.558;2023-04-05T06:19:23;101029.16;;;15.26;47.98
44457;BME280;30159;49.316;8.558;2023-04-05T06:21:51;101031.75;;;16.15;46.58
44457;BME280;30159;49.316;8.558;2023-04-05T06:24:17;101028.84;;;16.53;44.87
44457;BME280;30159;49.316;8.558;2023-04-05T06:26:45;101025.81;;;16.27;44.90
44457;BME280;30159;49.316;8.558;2023-04-05T06:29:11;101028.16;;;17.12;43.91
44457;BME280;30159;49.316;8.558;2023-04-05T06:31:38;101019.72;;;17.67;43.54
44457;BME280;30159;49.316;8.558;2023-04-05T06:34:05;100988.38;;;17.56;42.77
44457;BME280;30159;49.316;8.558;2023-04-05T06:36:32;100994.16;;;18.17;42.19
44457;BME280;30159;49.316;8.558;2023-04-05T06:39:00;101021.47;;;18.83;41.41
44457;BME280;30159;49.316;8.558;2023-04-05T06:41:27;101014.59;;;19.20;41.03
44457;BME280;30159;49.316;8.558;2023-04-05T06:43:53;101020.72;;;19.26;40.06
44457;BME280;30159;49.316;8.558;2023-04-05T06:46:20;101017.78;;;19.13;40.03
44457;BME280;30159;49.316;8.558;2023-04-05T06:48:47;101014.06;;;19.53;40.11
44457;BME280;30159;49.316;8.558;2023-04-05T06:51:14;101011.97;;;19.58;39.93
44457;BME280;30159;49.316;8.558;2023-04-05T06:53:42;101009.78;;;19.26;40.05
44457;BME280;30159;49.316;8.558;2023-04-05T06:56:09;101014.25;;;19.39;40.30
44457;BME280;30159;49.316;8.558;2023-04-05T06:58:36;101024.34;;;19.91;39.93
44457;BME280;30159;49.316;8.558;2023-04-05T07:01:03;101016.81;;;20.17;39.15
44457;BME280;30159;49.316;8.558;2023-04-05T07:03:30;101019.56;;;20.09;39.20
44457;BME280;30159;49.316;8.558;2023-04-05T07:05:58;101021.19;;;20.10;39.21
44457;BME280;30159;49.316;8.558;2023-04-05T07:08:26;101014.25;;;20.12;39.58
44457;BME280;30159;49.316;8.558;2023-04-05T07:10:53;101000.69;;;20.16;38.97
44457;BME280;30159;49.316;8.558;2023-04-05T07:13:23;101005.91;;;20.38;38.23
44457;BME280;30159;49.316;8.558;2023-04-05T07:15:50;101009.25;;;20.74;38.31
44457;BME280;30159;49.316;8.558;2023-04-05T07:18:17;101013.44;;;21.01;37.87
44457;BME280;30159;49.316;8.558;2023-04-05T07:20:46;101011.91;;;20.91;38.25
44457;BME280;30159;49.316;8.558;2023-04-05T07:23:13;101011.88;;;21.12;37.22
44457;BME280;30159;49.316;8.558;2023-04-05T07:25:40;101006.16;;;21.05;36.90
44457;BME280;30159;49.316;8.558;2023-04-05T07:28:06;101012.69;;;20.92;37.02
44457;BME280;30159;49.316;8.558;2023-04-05T07:30:34;101007.56;;;21.23;37.43
44457;BME280;30159;49.316;8.558;2023-04-05T07:33:01;101002.50;;;20.41;38.41
44457;BME280;30159;49.316;8.558;2023-04-05T07:35:27;101008.25;;;19.72;38.83
44457;BME280;30159;49.316;8.558;2023-04-05T07:37:54;101006.69;;;19.53;38.10
44457;BME280;30159;49.316;8.558;2023-04-05T07:40:21;101009.47;;;19.19;38.31
44457;BME280;30159;49.316;8.558;2023-04-05T07:42:47;101007.41;;;17.78;39.62
44457;BME280;30159;49.316;8.558;2023-04-05T07:45:14;101009.69;;;15.70;43.21
44457;BME280;30159;49.316;8.558;2023-04-05T07:47:42;101016.94;;;13.25;45.08
44457;BME280;30159;49.316;8.558;2023-04-05T07:50:09;101020.47;;;11.60;49.33
44457;BME280;30159;49.316;8.558;2023-04-05T07:52:39;101021.72;;;9.85;51.93
44457;BME280;30159;49.316;8.558;2023-04-05T07:55:06;101020.47;;;9.28;54.18
44457;BME280;30159;49.316;8.558;2023-04-05T07:57:33;101018.91;;;9.05;54.58
44457;BME280;30159;49.316;8.558;2023-04-05T08:00:00;101013.97;;;8.70;57.82
44457;BME280;30159;49.316;8.558;2023-04-05T08:02:26;101016.03;;;8.63;56.98
44457;BME280;30159;49.316;8.558;2023-04-05T08:04:54;101020.59;;;8.40;56.99
44457;BME280;30159;49.316;8.558;2023-04-05T08:07:22;101016.19;;;7.95;57.36
44457;BME280;30159;49.316;8.558;2023-04-05T08:09:51;101018.06;;;7.95;60.52
44457;BME280;30159;49.316;8.558;2023-04-05T08:12:21;101022.03;;;7.92;59.95
44457;BME280;30159;49.316;8.558;2023-04-05T08:14:48;101015.28;;;7.90;59.17
44457;BME280;30159;49.316;8.558;2023-04-05T08:17:15;101014.00;;;7.58;57.90
44457;BME280;30159;49.316;8.558;2023-04-05T08:19:42;101022.72;;;7.20;59.06
44457;BME280;30159;49.316;8.558;2023-04-05T08:22:10;101017.63;;;7.18;59.57
44457;BME280;30159;49.316;8.558;2023-04-05T08:24:37;101018.97;;;7.04;59.40
44457;BME280;30159;49.316;8.558;2023-04-05T08:27:03;100997.38;;;6.82;61.09
44457;BME280;30159;49.316;8.558;2023-04-05T08:29:30;101020.06;;;6.91;60.86
44457;BME280;30159;49.316;8.558;2023-04-05T08:31:57;101018.59;;;6.84;61.39
44457;BME280;30159;49.316;8.558;2023-04-05T08:34:23;101011.84;;;7.10;61.07
44457;BME280;30159;49.316;8.558;2023-04-05T08:36:50;101014.44;;;7.22;61.10
44457;BME280;30159;49.316;8.558;2023-04-05T08:39:18;100997.69;;;7.14;60.33
44457;BME280;30159;49.316;8.558;2023-04-05T08:41:51;101021.00;;;6.85;59.46
44457;BME280;30159;49.316;8.558;2023-04-05T08:44:21;100773.66;;;5.06;60.21
44457;BME280;30159;49.316;8.558;2023-04-05T08:46:49;101011.53;;;6.66;60.35
44457;BME280;30159;49.316;8.558;2023-04-05T08:49:16;101014.72;;;6.51;61.47
44457;BME280;30159;49.316;8.558;2023-04-05T08:51:42;101014.97;;;6.49;59.50
44457;BME280;30159;49.316;8.558;2023-04-05T08:54:10;101009.09;;;6.64;60.14
44457;BME280;30159;49.316;8.558;2023-04-05T08:56:38;101013.41;;;6.94;60.37
44457;BME280;30159;49.316;8.558;2023-04-05T08:59:07;101013.44;;;7.11;59.65
44457;BME280;30159;49.316;8.558;2023-04-05T09:01:36;101007.78;;;7.24;59.45
44457;BME280;30159;49.316;8.558;2023-04-05T09:04:05;101012.50;;;7.17;58.73
44457;BME280;30159;49.316;8.558;2023-04-05T09:06:32;100986.41;;;6.84;59.16
44457;BME280;30159;49.316;8.558;2023-04-05T09:09:05;101009.63;;;6.78;59.10
44457;BME280;30159;49.316;8.558;2023-04-05T09:11:32;101017.63;;;6.90;60.03
44457;BME280;30159;49.316;8.558;2023-04-05T09:14:01;101024.22;;;6.99;60.45
44457;BME280;30159;49.316;8.558;2023-04-05T09:16:28;101017.47;;;6.96;59.45
44457;BME280;30159;49.316;8.558;2023-04-05T09:18:55;101003.16;;;7.20;60.64
44457;BME280;30159;49.316;8.558;2023-04-05T09:21:21;101002.63;;;7.34;58.94
44457;BME280;30159;49.316;8.558;2023-04-05T09:23:51;101007.97;;;7.34;58.64
44457;BME280;30159;49.316;8.558;2023-04-05T09:26:21;101005.19;;;7.29;59.24
44457;BME280;30159;49.316;8.558;2023-04-05T09:28:47;101004.84;;;7.09;59.47
44457;BME280;30159;49.316;8.558;2023-04-05T09:31:32;101005.97;;;7.13;58.61
44457;BME280;30159;49.316;8.558;2023-04-05T09:34:01;101001.00;;;7.05;59.72
44457;BME280;30159;49.316;8.558;2023-04-05T09:36:28;100999.78;;;6.95;59.43
44457;BME280;30159;49.316;8.558;2023-04-05T09:39:03;100996.50;;;6.93;60.22
44457;BME280;30159;49.316;8.558;2023-04-05T09:41:31;100932.13;;;6.77;59.02
44457;BME280;30159;49.316;8.558;2023-04-05T09:43:58;100991.94;;;7.23;59.32
44457;BME280;30159;49.316;8.558;2023-04-05T09:46:29;100987.63;;;7.22;59.18
44457;BME280;30159;49.316;8.558;2023-04-05T09:48:57;100988.69;;;7.21;58.27
44457;BME280;30159;49.316;8.558;2023-04-05T09:51:31;100983.56;;;7.36;59.20
44457;BME280;30159;49.316;8.558;2023-04-05T09:53:59;100989.75;;;7.53;59.03
44457;BME280;30159;49.316;8.558;2023-04-05T09:56:27;100979.59;;;7.72;57.84
44457;BME280;30159;49.316;8.558;2023-04-05T09:58:57;100920.19;;;7.69;56.77
44457;BME280;30159;49.316;8.558;2023-04-05T10:01:26;100972.59;;;8.10;56.37
44457;BME280;30159;49.316;8.558;2023-04-05T10:03:53;100967.47;;;8.31;56.87
44457;BME280;30159;49.316;8.558;2023-04-05T10:06:20;100974.13;;;8.45;57.50
44457;BME280;30159;49.316;8.558;2023-04-05T10:08:47;100973.84;;;8.41;57.14
44457;BME280;30159;49.316;8.558;2023-04-05T10:11:17;100896.41;;;7.99;55.95
44457;BME280;30159;49.316;8.558;2023-04-05T10:13:44;100969.69;;;8.56;58.12
44457;BME280;30159;49.316;8.558;2023-04-05T10:16:16;100953.88;;;8.59;57.66
44457;BME280;30159;49.316;8.558;2023-04-05T10:18:49;100962.72;;;8.82;57.23
44457;BME280;30159;49.316;8.558;2023-04-05T10:21:21;100958.47;;;8.86;58.00
44457;BME280;30159;49.316;8.558;2023-04-05T10:23:53;100960.28;;;9.07;56.95
44457;BME280;30159;49.316;8.558;2023-04-05T10:26:28;100959.34;;;9.24;55.42
44457;BME280;30159;49.316;8.558;2023-04-05T10:29:01;100948.56;;;9.24;55.55
44457;BME280;30159;49.316;8.558;2023-04-05T10:31:39;100953.66;;;9.58;55.38
44457;BME280;30159;49.316;8.558;2023-04-05T10:34:13;100959.56;;;9.55;54.44
44457;BME280;30159;49.316;8.558;2023-04-05T10:36:49;100954.88;;;9.07;52.55
44457;BME280;30159;49.316;8.558;2023-04-05T10:39:22;100954.38;;;8.56;54.84
44457;BME280;30159;49.316;8.558;2023-04-05T10:41:52;100950.94;;;8.61;54.75
44457;BME280;30159;49.316;8.558;2023-04-05T10:44:20;100944.44;;;8.84;55.99
44457;BME280;30159;49.316;8.558;2023-04-05T10:46:47;100954.69;;;9.14;56.17
44457;BME280;30159;49.316;8.558;2023-04-05T10:49:19;100943.00;;;9.36;55.22
44457;BME280;30159;49.316;8.558;2023-04-05T10:51:49;100939.50;;;9.35;54.11
44457;BME280;30159;49.316;8.558;2023-04-05T10:54:16;100940.44;;;9.51;55.22
44457;BME280;30159;49.316;8.558;2023-04-05T10:56:45;100935.06;;;9.51;53.37
44457;BME280;30159;49.316;8.558;2023-04-05T10:59:12;100873.22;;;9.24;54.01
44457;BME280;30159;49.316;8.558;2023-04-05T11:01:39;100937.16;;;9.86;54.45
44457;BME280;30159;49.316;8.558;2023-04-05T11:04:10;100932.94;;;10.06;54.08
44457;BME280;30159;49.316;8.558;2023-04-05T11:06:37;100931.84;;;10.02;53.09
44457;BME280;30159;49.316;8.558;2023-04-05T11:09:10;100933.97;;;10.00;54.04
44457;BME280;30159;49.316;8.558;2023-04-05T11:11:40;100876.41;;;9.63;53.98
44457;BME280;30159;49.316;8.558;2023-04-05T11:14:18;100908.53;;;9.75;53.38
44457;BME280;30159;49.316;8.558;2023-04-05T11:16:46;100928.00;;;9.92;54.05
44457;BME280;30159;49.316;8.558;2023-04-05T11:19:15;100923.13;;;9.84;54.75
44457;BME280;30159;49.316;8.558;2023-04-05T11:21:42;100827.44;;;9.19;53.99
44457;BME280;30159;49.316;8.558;2023-04-05T11:24:11;100917.16;;;9.72;52.88
44457;BME280;30159;49.316;8.558;2023-04-05T11:26:53;100919.78;;;9.67;52.61
44457;BME280;30159;49.316;8.558;2023-04-05T11:29:47;100910.53;;;9.53;51.43
44457;BME280;30159;49.316;8.558;2023-04-05T11:32:18;100907.31;;;9.18;52.27
44457;BME280;30159;49.316;8.558;2023-04-05T11:34:57;100913.03;;;9.22;52.85
44457;BME280;30159;49.316;8.558;2023-04-05T11:37:52;100906.69;;;9.38;52.16
44457;BME280;30159;49.316;8.558;2023-04-05T11:40:25;100846.47;;;9.12;53.25
44457;BME280;30159;49.316;8.558;2023-04-05T11:43:00;100844.22;;;8.99;51.12
44457;BME280;30159;49.316;8.558;2023-04-05T11:45:29;100896.88;;;9.22;53.60
44457;BME280;30159;49.316;8.558;2023-04-05T11:47:56;100866.47;;;8.89;54.73
44457;BME280;30159;49.316;8.558;2023-04-05T11:50:22;100894.22;;;9.27;53.75
44457;BME280;30159;49.316;8.558;2023-04-05T11:53:07;100898.34;;;9.40;53.02
44457;BME280;30159;49.316;8.558;2023-04-05T11:55:36;100897.38;;;9.56;53.24
44457;BME280;30159;49.316;8.558;2023-04-05T11:58:10;100892.94;;;9.77;52.72
44457;BME280;30159;49.316;8.558;2023-04-05T12:00:37;100873.53;;;9.80;52.26
44457;BME280;30159;49.316;8.558;2023-04-05T12:03:04;100888.91;;;9.85;50.73
44457;BME280;30159;49.316;8.558;2023-04-05T12:05:44;100893.97;;;9.71;51.70
44457;BME280;30159;49.316;8.558;2023-04-05T12:08:10;100886.97;;;9.70;51.59
44457;BME280;30159;49.316;8.558;2023-04-05T12:10:38;100874.56;;;9.69;52.82
44457;BME280;30159;49.316;8.558;2023-04-05T12:13:05;100882.72;;;9.84;52.92
44457;BME280;30159;49.316;8.558;2023-04-05T12:15:36;100888.53;;;9.61;51.07
44457;BME280;30159;49.316;8.558;2023-04-05T12:18:02;100863.13;;;9.46;51.28
44457;BME280;30159;49.316;8.558;2023-04-05T12:20:29;100878.03;;;9.64;53.50
44457;BME280;30159;49.316;8.558;2023-04-05T12:22:57;100840.53;;;9.53;51.35
44457;BME280;30159;49.316;8.558;2023-04-05T12:25:25;100852.16;;;9.58;51.58
44457;BME280;30159;49.316;8.558;2023-04-05T12:27:53;100870.72;;;9.55;50.71
44457;BME280;30159;49.316;8.558;2023-04-05T12:30:20;100867.19;;;9.49;51.62
44457;BME280;30159;49.316;8.558;2023-04-05T12:32:49;100868.00;;;9.55;51.51
44457;BME280;30159;49.316;8.558;2023-04-05T12:35:17;100869.34;;;9.52;50.87
44457;BME280;30159;49.316;8.558;2023-04-05T12:37:44;100795.47;;;8.90;51.36
44457;BME280;30159;49.316;8.558;2023-04-05T12:40:12;100856.44;;;9.12;51.23
44457;BME280;30159;49.316;8.558;2023-04-05T12:42:39;100854.78;;;9.05;51.58
44457;BME280;30159;49.316;8.558;2023-04-05T12:45:09;100858.06;;;9.13;52.03
44457;BME280;30159;49.316;8.558;2023-04-05T12:47:47;100863.03;;;9.31;52.04
44457;BME280;30159;49.316;8.558;2023-04-05T12:50:15;100852.09;;;9.48;50.69
44457;BME280;30159;49.316;8.558;2023-04-05T12:52:56;100815.78;;;9.56;50.70
44457;BME280;30159;49.316;8.558;2023-04-05T12:55:23;100839.84;;;9.73;52.53
44457;BME280;30159;49.316;8.558;2023-04-05T13:00:20;100842.63;;;9.98;50.82
44457;BME280;30159;49.316;8.558;2023-04-05T13:02:50;100820.28;;;9.98;50.83
44457;BME280;30159;49.316;8.558;2023-04-05T13:05:18;100822.13;;;9.92;49.56
44457;BME280;30159;49.316;8.558;2023-04-05T13:07:45;100836.47;;;10.03;50.43
44457;BME280;30159;49.316;8.558;2023-04-05T13:10:12;100827.59;;;10.12;50.14
44457;BME280;30159;49.316;8.558;2023-04-05T13:12:38;100828.94;;;10.10;49.39